Time;durP1;ratioP1;P1;durP2;ratioP2;P2;SDS_P1;SDS_P2;PMS_P1;PMS_P2;Temp;Humidity;BMP_temperature;BMP_pressure;BME280_temperature;BME280_humidity;BME280_pressure;Samples;Min_cycle;Max_cycle;Signal;HPM_P1;HPM_P2
2022/01/09 00:00:59;;;;;;;35.55;5.50;;;6.60;99.90;;;;;;5096739;28;20040;-80
2022/01/09 00:03:24;;;;;;;39.13;6.15;;;6.60;99.90;;;;;;5095296;28;20047;-77
2022/01/09 00:05:50;;;;;;;20.67;4.78;;;6.60;99.90;;;;;;5096450;28;20024;-81
2022/01/09 00:08:16;;;;;;;27.20;4.05;;;6.70;99.90;;;;;;5096814;28;20024;-80
2022/01/09 00:10:46;;;;;;;30.48;4.60;;;6.80;99.90;;;;;;5096360;28;20024;-80
2022/01/09 00:13:12;;;;;;;21.27;3.85;;;6.80;99.90;;;;;;5095602;28;20392;-81
2022/01/09 00:15:38;;;;;;;32.85;5.28;;;6.90;99.90;;;;;;5096305;28;20020;-80
2022/01/09 00:18:04;;;;;;;35.28;6.90;;;6.90;99.90;;;;;;5096360;28;20046;-80
2022/01/09 00:20:30;;;;;;;28.50;5.35;;;6.80;99.90;;;;;;5095947;28;20051;-81
2022/01/09 00:22:56;;;;;;;32.25;5.85;;;6.90;99.90;;;;;;5096527;28;20040;-79
2022/01/09 00:25:24;;;;;;;46.47;5.90;;;6.90;99.90;;;;;;5095816;28;20043;-80
2022/01/09 00:27:51;;;;;;;42.72;7.40;;;6.90;99.90;;;;;;5096304;28;20012;-80
2022/01/09 00:30:20;;;;;;;36.95;6.10;;;6.90;99.90;;;;;;5094827;28;20020;-80
2022/01/09 00:32:46;;;;;;;47.90;7.10;;;6.90;99.90;;;;;;5096004;28;20020;-81
2022/01/09 00:35:13;;;;;;;39.67;7.28;;;7.00;99.90;;;;;;5096293;28;20028;-80
2022/01/09 00:37:39;;;;;;;31.67;5.82;;;6.90;99.90;;;;;;5095417;28;20510;-79
2022/01/09 00:40:07;;;;;;;43.88;5.18;;;6.90;99.90;;;;;;5096255;28;20479;-80
2022/01/09 00:42:33;;;;;;;34.05;6.53;;;6.90;99.90;;;;;;5094868;28;20024;-79
2022/01/09 00:44:59;;;;;;;54.38;7.43;;;6.90;99.90;;;;;;5095995;28;20035;-79
2022/01/09 00:47:24;;;;;;;45.13;6.38;;;6.90;99.90;;;;;;5095648;28;20036;-80
2022/01/09 00:49:50;;;;;;;43.75;5.93;;;6.90;99.90;;;;;;5095624;28;20380;-79
2022/01/09 00:52:16;;;;;;;46.38;6.93;;;6.90;99.90;;;;;;5094535;28;20498;-80
2022/01/09 00:54:42;;;;;;;35.38;5.38;;;6.90;99.90;;;;;;5095688;28;20036;-79
2022/01/09 00:57:07;;;;;;;41.40;6.85;;;6.90;99.90;;;;;;5095604;28;20024;-79
2022/01/09 00:59:33;;;;;;;35.03;5.80;;;6.90;99.90;;;;;;5095600;28;20168;-79
2022/01/09 01:01:59;;;;;;;43.10;6.05;;;6.90;99.90;;;;;;5095147;28;20047;-78
2022/01/09 01:04:24;;;;;;;39.33;4.97;;;6.90;99.90;;;;;;5094381;28;20016;-78
2022/01/09 01:06:51;;;;;;;35.08;5.70;;;6.90;99.90;;;;;;5095443;28;20069;-79
2022/01/09 01:09:17;;;;;;;50.78;5.22;;;6.80;99.90;;;;;;5094820;28;20126;-79
2022/01/09 01:11:43;;;;;;;49.78;5.40;;;6.80;99.90;;;;;;5095197;28;20178;-79
2022/01/09 01:14:09;;;;;;;34.90;6.38;;;6.80;99.90;;;;;;5094131;28;20020;-79
2022/01/09 01:16:35;;;;;;;34.53;5.60;;;6.80;99.90;;;;;;5094892;28;20028;-79
2022/01/09 01:19:02;;;;;;;29.13;4.15;;;6.80;99.90;;;;;;5076921;28;20028;-79
2022/01/09 01:21:29;;;;;;;32.63;6.55;;;6.90;99.90;;;;;;5095064;28;20051;-79
2022/01/09 01:23:55;;;;;;;24.35;4.55;;;6.90;99.90;;;;;;5093942;28;20027;-80
2022/01/09 01:26:21;;;;;;;30.52;5.75;;;6.80;99.90;;;;;;5094882;28;20028;-79
2022/01/09 01:28:46;;;;;;;30.33;5.85;;;6.90;99.90;;;;;;5095115;28;20017;-80
2022/01/09 01:31:12;;;;;;;25.05;4.13;;;6.80;99.90;;;;;;5094778;28;20032;-79
2022/01/09 01:33:38;;;;;;;22.38;4.45;;;6.80;99.90;;;;;;5095047;28;20028;-73
2022/01/09 01:36:04;;;;;;;30.92;5.03;;;6.80;99.90;;;;;;5094399;28;20046;-79
2022/01/09 01:38:30;;;;;;;23.85;4.95;;;6.80;99.90;;;;;;5093548;28;20150;-79
2022/01/09 01:40:57;;;;;;;33.33;4.93;;;6.80;99.90;;;;;;5094677;28;20115;-78
2022/01/09 01:43:22;;;;;;;44.53;8.73;;;6.80;99.90;;;;;;5094982;28;20035;-78
2022/01/09 01:45:48;;;;;;;27.38;5.53;;;6.80;99.90;;;;;;5094441;28;20389;-79
2022/01/09 01:48:14;;;;;;;33.45;4.90;;;6.80;99.90;;;;;;5094613;28;20166;-79
2022/01/09 01:50:41;;;;;;;30.58;5.00;;;6.90;99.90;;;;;;5095053;28;20512;-80
2022/01/09 01:53:12;;;;;;;23.67;5.50;;;6.90;99.90;;;;;;5094665;28;20042;-80
2022/01/09 01:55:40;;;;;;;21.83;3.67;;;6.80;99.90;;;;;;5094862;28;20043;-79
2022/01/09 01:58:10;;;;;;;27.33;4.78;;;6.80;99.90;;;;;;5094580;28;20073;-78
2022/01/09 02:00:37;;;;;;;16.50;3.20;;;6.70;99.90;;;;;;5094581;28;20040;-78
2022/01/09 02:03:03;;;;;;;17.40;3.45;;;6.60;99.90;;;;;;5094820;28;20020;-79
2022/01/09 02:05:29;;;;;;;15.40;3.25;;;6.60;99.90;;;;;;5094821;28;20023;-79
2022/01/09 02:07:56;;;;;;;25.73;5.22;;;6.60;99.90;;;;;;5093389;28;20459;-79
2022/01/09 02:10:22;;;;;;;24.17;3.55;;;6.60;99.90;;;;;;5093214;28;20046;-78
2022/01/09 02:12:50;;;;;;;28.77;3.70;;;6.60;99.90;;;;;;5094385;28;20461;-78
2022/01/09 02:15:35;;;;;;;33.45;5.38;;;6.60;99.90;;;;;;5094366;28;20042;-79
2022/01/09 02:18:04;;;;;;;18.63;3.97;;;6.60;99.90;;;;;;5094412;28;20408;-79
2022/01/09 02:20:31;;;;;;;38.17;4.97;;;6.50;99.90;;;;;;5097205;28;20024;-79
2022/01/09 02:22:57;;;;;;;14.82;3.38;;;6.50;99.90;;;;;;5094120;28;20097;-78
2022/01/09 02:25:23;;;;;;;30.05;4.40;;;6.50;99.90;;;;;;5092801;28;20032;-78
2022/01/09 02:27:49;;;;;;;20.92;3.60;;;6.60;99.90;;;;;;5094267;28;20035;-79
2022/01/09 02:30:15;;;;;;;30.90;4.55;;;6.50;99.90;;;;;;5093539;28;20028;-78
2022/01/09 02:32:40;;;;;;;31.10;4.10;;;6.50;99.90;;;;;;5093966;28;20024;-79
2022/01/09 02:35:07;;;;;;;21.45;4.00;;;6.50;99.90;;;;;;5096986;28;20073;-78
2022/01/09 02:37:32;;;;;;;24.08;3.42;;;6.50;99.90;;;;;;5096281;28;20033;-79
2022/01/09 02:39:58;;;;;;;34.55;3.50;;;6.50;99.90;;;;;;5093728;28;20487;-78
2022/01/09 02:42:27;;;;;;;23.17;3.63;;;6.50;99.90;;;;;;5093748;28;20036;-79
2022/01/09 02:44:55;;;;;;;24.58;4.13;;;6.50;99.90;;;;;;5093644;28;20028;-79
2022/01/09 02:47:21;;;;;;;24.02;3.75;;;6.50;99.90;;;;;;5093451;28;20020;-79
2022/01/09 02:49:50;;;;;;;25.38;4.00;;;6.50;99.90;;;;;;5093924;28;20039;-79
2022/01/09 02:52:47;;;;;;;21.63;3.75;;;6.50;99.90;;;;;;5093521;28;20020;-78
2022/01/09 02:55:14;;;;;;;28.48;3.97;;;6.50;99.90;;;;;;5093601;28;20388;-78
2022/01/09 02:57:42;;;;;;;28.85;3.95;;;6.40;99.90;;;;;;5093146;28;20020;-78
2022/01/09 03:00:11;;;;;;;19.58;3.35;;;6.40;99.90;;;;;;5092117;28;20384;-79
2022/01/09 03:02:37;;;;;;;23.05;3.00;;;6.40;99.90;;;;;;5093366;28;20032;-79
2022/01/09 03:05:03;;;;;;;14.95;4.28;;;6.40;99.90;;;;;;5093480;28;20570;-78
2022/01/09 03:07:29;;;;;;;27.20;3.50;;;6.40;99.90;;;;;;5093227;28;20476;-79
2022/01/09 03:09:55;;;;;;;16.92;2.90;;;6.40;99.90;;;;;;5093130;28;20108;-79
2022/01/09 03:12:22;;;;;;;25.48;4.43;;;6.30;99.90;;;;;;5092281;28;20035;-79
2022/01/09 03:14:48;;;;;;;19.13;4.10;;;6.40;99.90;;;;;;5075056;28;20422;-80
2022/01/09 03:17:13;;;;;;;26.95;3.20;;;6.30;99.90;;;;;;5071728;28;20090;-79
2022/01/09 03:19:39;;;;;;;20.70;3.08;;;6.30;99.90;;;;;;5072754;28;20032;-79
2022/01/09 03:22:05;;;;;;;21.50;3.10;;;6.30;99.90;;;;;;5072877;28;20036;-79
2022/01/09 03:24:30;;;;;;;19.83;3.78;;;6.30;99.90;;;;;;5072848;28;20028;-79
2022/01/09 03:26:56;;;;;;;29.10;4.53;;;6.30;99.90;;;;;;5086104;28;20036;-78
2022/01/09 03:29:22;;;;;;;29.77;4.32;;;6.30;99.90;;;;;;5092917;28;20099;-79
2022/01/09 03:31:47;;;;;;;16.60;2.83;;;6.30;99.90;;;;;;5092756;28;20461;-79
2022/01/09 03:34:13;;;;;;;27.77;3.80;;;6.30;99.90;;;;;;5092779;28;20120;-78
2022/01/09 03:36:39;;;;;;;25.90;3.35;;;6.30;99.90;;;;;;5093179;28;20016;-79
2022/01/09 03:39:05;;;;;;;19.95;3.08;;;6.30;99.90;;;;;;5091446;28;20024;-79
2022/01/09 03:41:30;;;;;;;22.08;3.38;;;6.30;99.90;;;;;;5092567;28;20097;-79
2022/01/09 03:43:56;;;;;;;25.25;4.40;;;6.40;99.90;;;;;;5092981;28;20043;-79
2022/01/09 03:46:22;;;;;;;22.05;4.05;;;6.40;99.90;;;;;;5092975;28;20024;-79
2022/01/09 03:48:47;;;;;;;19.27;4.03;;;6.40;99.90;;;;;;5092766;28;20035;-79
2022/01/09 03:51:13;;;;;;;24.10;3.97;;;6.30;99.90;;;;;;5092679;28;20036;-79
2022/01/09 03:53:40;;;;;;;17.98;2.97;;;6.30;99.90;;;;;;5092887;28;20061;-80
2022/01/09 03:56:05;;;;;;;21.17;3.63;;;6.30;99.90;;;;;;5092429;28;20036;-79
2022/01/09 03:58:31;;;;;;;27.85;4.18;;;6.30;99.90;;;;;;5091274;28;20066;-80
2022/01/09 04:00:57;;;;;;;18.95;3.63;;;6.30;99.90;;;;;;5092857;28;20028;-79
2022/01/09 04:03:23;;;;;;;25.33;3.60;;;6.40;99.90;;;;;;5092497;28;20108;-79
2022/01/09 04:05:48;;;;;;;22.33;4.93;;;6.30;99.90;;;;;;5091182;28;20345;-80
2022/01/09 04:08:14;;;;;;;14.30;2.58;;;6.30;99.90;;;;;;5092607;28;20024;-80
2022/01/09 04:10:42;;;;;;;16.52;2.67;;;6.20;99.90;;;;;;5090890;28;20028;-79
2022/01/09 04:13:12;;;;;;;23.92;3.65;;;6.30;99.90;;;;;;5092694;28;20074;-79
2022/01/09 04:15:38;;;;;;;17.58;3.60;;;6.30;99.90;;;;;;5092193;28;20076;-79
2022/01/09 04:18:05;;;;;;;17.17;4.78;;;6.30;99.90;;;;;;5091345;28;20426;-79
2022/01/09 04:20:31;;;;;;;22.90;3.10;;;6.20;99.90;;;;;;5090975;28;20502;-79
2022/01/09 04:22:59;;;;;;;26.33;3.45;;;6.20;99.90;;;;;;5092545;28;20055;-80
2022/01/09 04:25:25;;;;;;;15.00;2.60;;;6.20;99.90;;;;;;5091923;28;20020;-79
2022/01/09 04:27:51;;;;;;;37.75;3.88;;;6.20;99.90;;;;;;5092555;28;20032;-79
2022/01/09 04:30:18;;;;;;;27.45;3.85;;;6.20;99.90;;;;;;5092288;28;20020;-79
2022/01/09 04:32:44;;;;;;;15.05;3.83;;;6.20;99.90;;;;;;5092518;28;20040;-79
2022/01/09 04:35:11;;;;;;;43.35;3.95;;;6.20;99.90;;;;;;5092325;28;20032;-80
2022/01/09 04:37:38;;;;;;;14.25;2.80;;;6.20;99.90;;;;;;5091065;28;20043;-78
2022/01/09 04:40:05;;;;;;;17.77;3.65;;;6.10;99.90;;;;;;5091980;28;20028;-79
2022/01/09 04:42:39;;;;;;;20.85;3.50;;;6.10;99.90;;;;;;5099908;28;20035;-79
2022/01/09 04:45:07;;;;;;;20.27;2.92;;;6.10;99.90;;;;;;5094543;28;20066;-79
2022/01/09 04:47:33;;;;;;;17.38;3.85;;;6.10;99.90;;;;;;5095750;28;20070;-79
2022/01/09 04:49:59;;;;;;;23.35;4.10;;;6.00;99.90;;;;;;5094336;28;20419;-79
2022/01/09 04:52:31;;;;;;;27.83;3.55;;;5.90;99.90;;;;;;5095755;28;20024;-78
2022/01/09 04:54:56;;;;;;;18.48;3.35;;;5.80;99.90;;;;;;5095782;28;20525;-79
2022/01/09 04:57:22;;;;;;;21.67;4.35;;;5.80;99.90;;;;;;5095471;28;20024;-77
2022/01/09 04:59:48;;;;;;;27.67;4.78;;;5.80;99.90;;;;;;5094271;28;20366;-78
2022/01/09 05:02:13;;;;;;;24.33;4.30;;;5.90;99.90;;;;;;5094007;28;20032;-79
2022/01/09 05:04:39;;;;;;;17.85;2.50;;;5.80;99.90;;;;;;5095717;28;20060;-79
2022/01/09 05:07:05;;;;;;;18.35;3.38;;;5.90;99.90;;;;;;5095795;28;20099;-78
2022/01/09 05:09:31;;;;;;;24.73;4.05;;;5.90;99.90;;;;;;5095340;28;20031;-78
2022/01/09 05:11:57;;;;;;;19.33;3.85;;;5.90;99.90;;;;;;5098078;28;20032;-79
2022/01/09 05:14:23;;;;;;;18.50;3.40;;;5.90;99.90;;;;;;5096233;28;20028;-77
2022/01/09 05:16:50;;;;;;;22.98;3.72;;;5.90;99.90;;;;;;5094405;28;20084;-79
2022/01/09 05:19:19;;;;;;;19.20;3.75;;;5.90;99.90;;;;;;5095065;28;20469;-79
2022/01/09 05:21:45;;;;;;;15.38;2.70;;;5.90;99.90;;;;;;5095213;28;20044;-79
2022/01/09 05:24:12;;;;;;;12.82;2.63;;;5.90;99.90;;;;;;5095153;28;20380;-79
2022/01/09 05:26:38;;;;;;;21.17;3.53;;;5.90;99.90;;;;;;5095196;28;20032;-79
2022/01/09 05:29:03;;;;;;;20.50;3.60;;;5.90;99.90;;;;;;5095318;28;20027;-80
2022/01/09 05:31:29;;;;;;;23.80;4.38;;;5.80;99.90;;;;;;5094778;28;20035;-80
2022/01/09 05:33:55;;;;;;;22.13;3.28;;;5.80;99.90;;;;;;5095243;28;20032;-80
2022/01/09 05:36:21;;;;;;;19.88;2.88;;;5.80;99.90;;;;;;5095239;28;20429;-79
2022/01/09 05:38:46;;;;;;;28.98;4.18;;;5.70;99.90;;;;;;5093995;28;20032;-79
2022/01/09 05:41:12;;;;;;;28.77;4.00;;;5.90;99.90;;;;;;5094909;28;20059;-79
2022/01/09 05:43:40;;;;;;;16.67;3.90;;;5.80;99.90;;;;;;5095213;28;20032;-79
2022/01/09 05:46:05;;;;;;;20.55;3.72;;;5.80;99.90;;;;;;5095005;28;20081;-78
2022/01/09 05:48:31;;;;;;;15.32;3.15;;;5.70;99.90;;;;;;5095032;28;20484;-79
2022/01/09 05:50:57;;;;;;;18.17;3.30;;;5.60;99.90;;;;;;5095217;28;20372;-79
2022/01/09 05:53:23;;;;;;;17.67;3.33;;;5.60;99.90;;;;;;5094362;28;20035;-79
2022/01/09 05:55:48;;;;;;;13.00;3.60;;;5.50;99.90;;;;;;5094449;28;20056;-79
2022/01/09 05:58:15;;;;;;;22.10;2.83;;;5.50;99.90;;;;;;5094546;28;20024;-79
2022/01/09 06:00:41;;;;;;;15.00;4.18;;;5.60;99.90;;;;;;5094336;28;20032;-79
2022/01/09 06:03:06;;;;;;;20.08;3.33;;;5.60;99.90;;;;;;5094319;28;20031;-79
2022/01/09 06:05:32;;;;;;;25.02;3.17;;;5.70;99.90;;;;;;5094065;28;20024;-79
2022/01/09 06:07:58;;;;;;;16.45;3.92;;;5.70;99.90;;;;;;5094219;28;20020;-79
2022/01/09 06:10:24;;;;;;;23.30;3.10;;;5.70;99.90;;;;;;5094286;28;20400;-79
2022/01/09 06:12:49;;;;;;;13.88;2.55;;;5.80;99.90;;;;;;5094154;28;20024;-80
2022/01/09 06:15:15;;;;;;;23.92;3.70;;;5.70;99.90;;;;;;5094237;28;20122;-80
2022/01/09 06:17:43;;;;;;;19.60;2.88;;;5.60;99.90;;;;;;5094128;28;20034;-79
2022/01/09 06:20:10;;;;;;;13.07;3.10;;;5.60;99.90;;;;;;5093565;28;20051;-79
2022/01/09 06:22:36;;;;;;;22.70;3.55;;;5.60;99.90;;;;;;5094046;28;20081;-79
2022/01/09 06:25:03;;;;;;;25.48;4.28;;;5.60;99.90;;;;;;5094090;28;20020;-80
2022/01/09 06:27:29;;;;;;;25.60;3.60;;;5.60;99.90;;;;;;5093933;28;20028;-79
2022/01/09 06:29:54;;;;;;;23.33;3.88;;;5.60;99.90;;;;;;5093894;28;20111;-79
2022/01/09 06:32:20;;;;;;;22.50;3.45;;;5.60;99.90;;;;;;5093814;28;20081;-80
2022/01/09 06:34:46;;;;;;;28.15;3.97;;;5.60;99.90;;;;;;5093435;28;20020;-80
2022/01/09 06:37:12;;;;;;;20.13;4.40;;;5.60;99.90;;;;;;5093915;28;20099;-80
2022/01/09 06:39:39;;;;;;;17.05;2.90;;;5.60;99.90;;;;;;5093820;28;20034;-79
2022/01/09 06:42:05;;;;;;;22.70;3.58;;;5.60;99.90;;;;;;5093620;28;20487;-80
2022/01/09 06:44:31;;;;;;;15.93;2.60;;;5.60;99.90;;;;;;5087484;28;20028;-80
2022/01/09 06:46:57;;;;;;;21.90;3.03;;;5.60;99.90;;;;;;5077849;28;20033;-80
2022/01/09 06:49:23;;;;;;;25.08;3.78;;;5.50;99.90;;;;;;5071804;28;20381;-79
2022/01/09 06:51:49;;;;;;;18.58;3.05;;;5.60;99.90;;;;;;5073548;28;20036;-79
2022/01/09 06:54:15;;;;;;;16.10;2.83;;;5.50;99.90;;;;;;5073014;28;20028;-79
2022/01/09 06:56:41;;;;;;;14.75;3.55;;;5.50;99.90;;;;;;5073271;28;20035;-79
2022/01/09 06:59:07;;;;;;;18.65;3.75;;;5.50;99.90;;;;;;5073201;28;20051;-80
2022/01/09 07:01:33;;;;;;;19.55;3.25;;;5.40;99.90;;;;;;5073273;28;20040;-79
2022/01/09 07:03:58;;;;;;;14.90;2.75;;;5.40;99.90;;;;;;5072678;28;20032;-79
2022/01/09 07:06:24;;;;;;;32.13;3.65;;;5.30;99.90;;;;;;5072964;28;20044;-77
2022/01/09 07:08:50;;;;;;;22.73;3.75;;;5.30;99.90;;;;;;5075435;28;20024;-78
2022/01/09 07:11:15;;;;;;;15.25;3.05;;;5.30;99.90;;;;;;5092200;28;20438;-79
2022/01/09 07:13:42;;;;;;;21.48;3.35;;;5.20;99.90;;;;;;5092859;28;20446;-79
2022/01/09 07:16:08;;;;;;;20.75;4.15;;;5.20;99.90;;;;;;5093302;28;20120;-80
2022/01/09 07:18:33;;;;;;;21.30;3.78;;;5.20;99.90;;;;;;5092838;28;20119;-81
2022/01/09 07:20:59;;;;;;;13.45;3.15;;;5.20;99.90;;;;;;5091721;28;20086;-81
2022/01/09 07:23:25;;;;;;;18.77;3.22;;;5.10;99.90;;;;;;5092993;28;20047;-80
2022/01/09 07:25:51;;;;;;;30.92;4.30;;;5.00;99.90;;;;;;5093332;28;20032;-81
2022/01/09 07:28:18;;;;;;;23.65;3.63;;;5.10;99.90;;;;;;5093038;28;20069;-80
2022/01/09 07:30:43;;;;;;;22.95;4.15;;;5.00;99.90;;;;;;5093698;28;20016;-78
2022/01/09 07:33:09;;;;;;;20.10;3.40;;;5.00;99.90;;;;;;5092862;28;20021;-80
2022/01/09 07:35:35;;;;;;;21.08;3.90;;;5.00;99.90;;;;;;5093101;28;20380;-79
2022/01/09 07:38:01;;;;;;;19.55;3.80;;;5.00;99.90;;;;;;5093310;28;20111;-79
2022/01/09 07:40:28;;;;;;;20.92;4.10;;;5.00;99.90;;;;;;5091927;28;20032;-80
2022/01/09 07:42:54;;;;;;;27.02;3.78;;;5.10;99.90;;;;;;5093160;28;20031;-79
2022/01/09 07:45:24;;;;;;;16.35;2.88;;;5.10;99.90;;;;;;5093091;28;20107;-79
2022/01/09 07:47:50;;;;;;;19.83;3.50;;;5.10;99.90;;;;;;5091679;28;20103;-79
2022/01/09 07:50:17;;;;;;;18.42;4.00;;;5.20;99.90;;;;;;5093077;28;20030;-79
2022/01/09 07:52:43;;;;;;;12.45;2.63;;;5.20;99.90;;;;;;5092073;28;20078;-79
2022/01/09 07:55:10;;;;;;;27.25;3.72;;;5.20;99.90;;;;;;5093040;28;20024;-80
2022/01/09 07:57:36;;;;;;;16.20;2.38;;;5.20;99.90;;;;;;5095351;28;20028;-79
2022/01/09 08:00:04;;;;;;;14.55;3.80;;;5.40;99.90;;;;;;5097847;28;20150;-79
2022/01/09 08:02:39;;;;;;;25.17;2.70;;;5.30;99.90;;;;;;5092821;28;20032;-79
2022/01/09 08:05:05;;;;;;;18.17;3.33;;;5.30;99.90;;;;;;5092601;28;20078;-80
2022/01/09 08:07:31;;;;;;;9.40;3.47;;;5.30;99.90;;;;;;5092881;28;20123;-79
2022/01/09 08:09:56;;;;;;;17.33;2.97;;;5.20;99.90;;;;;;5092382;28;20107;-79
2022/01/09 08:12:22;;;;;;;18.10;3.97;;;5.30;99.90;;;;;;5092687;28;20542;-78
2022/01/09 08:14:48;;;;;;;11.88;3.33;;;5.30;99.90;;;;;;5092617;28;20028;-78
2022/01/09 08:17:14;;;;;;;27.52;3.15;;;5.30;99.90;;;;;;5092489;28;20461;-78
2022/01/09 08:19:40;;;;;;;17.25;4.00;;;5.30;99.90;;;;;;5092413;28;20519;-77
2022/01/09 08:22:07;;;;;;;21.65;4.18;;;5.30;99.90;;;;;;5096435;28;20043;-78
2022/01/09 08:24:34;;;;;;;17.05;3.25;;;5.30;99.90;;;;;;5096193;28;20031;-80
2022/01/09 08:27:00;;;;;;;19.95;3.40;;;5.40;99.90;;;;;;5098125;28;20028;-79
2022/01/09 08:29:26;;;;;;;18.52;2.88;;;5.30;99.90;;;;;;5100495;28;20035;-80
2022/01/09 08:31:52;;;;;;;22.05;3.50;;;5.40;99.90;;;;;;5097203;28;20077;-79
2022/01/09 08:34:18;;;;;;;16.05;2.92;;;5.40;99.90;;;;;;5094770;28;20024;-79
2022/01/09 08:36:44;;;;;;;26.17;4.03;;;5.50;99.90;;;;;;5096056;28;20028;-79
2022/01/09 08:39:12;;;;;;;17.98;3.25;;;5.50;99.90;;;;;;5096045;28;20435;-79
2022/01/09 08:41:39;;;;;;;25.65;3.67;;;5.60;99.90;;;;;;5095689;28;20033;-79
2022/01/09 08:44:06;;;;;;;16.23;3.63;;;5.60;99.90;;;;;;5095970;28;20081;-80
2022/01/09 08:46:34;;;;;;;76.88;29.35;;;5.60;99.90;;;;;;5095943;28;20043;-79
2022/01/09 08:49:00;;;;;;;30.50;11.23;;;5.50;99.90;;;;;;5095796;28;20032;-79
2022/01/09 08:51:27;;;;;;;28.77;6.55;;;5.60;99.90;;;;;;5095861;28;20063;-80
2022/01/09 08:53:52;;;;;;;17.85;4.43;;;5.50;99.90;;;;;;5095649;28;20632;-79
2022/01/09 08:56:20;;;;;;;20.02;4.35;;;5.70;99.90;;;;;;5094350;28;20024;-79
2022/01/09 08:58:47;;;;;;;14.65;4.60;;;5.60;99.90;;;;;;5095730;28;20475;-79
2022/01/09 09:01:12;;;;;;;22.25;5.43;;;5.60;99.90;;;;;;5095238;28;20024;-80
2022/01/09 09:03:41;;;;;;;20.58;4.53;;;5.60;99.90;;;;;;5095681;28;20045;-79
2022/01/09 09:06:15;;;;;;;20.13;5.00;;;5.60;99.90;;;;;;5095160;28;20020;-79
2022/01/09 09:08:42;;;;;;;17.95;4.18;;;5.50;99.90;;;;;;5094191;28;20027;-80
2022/01/09 09:11:10;;;;;;;27.83;5.35;;;5.50;99.90;;;;;;5095267;28;20103;-80
2022/01/09 09:13:37;;;;;;;24.80;5.80;;;5.40;99.90;;;;;;5094141;28;20036;-78
2022/01/09 09:16:03;;;;;;;16.23;4.97;;;5.40;99.90;;;;;;5094824;28;20024;-79
2022/01/09 09:18:29;;;;;;;13.18;3.20;;;5.50;99.90;;;;;;5095222;28;20032;-80
2022/01/09 09:20:55;;;;;;;23.77;6.82;;;5.50;99.90;;;;;;5094999;28;20028;-80
2022/01/09 09:23:21;;;;;;;30.33;7.63;;;5.60;99.90;;;;;;5094942;28;20044;-79
2022/01/09 09:25:47;;;;;;;16.85;4.95;;;5.70;99.90;;;;;;5094854;28;20031;-80
2022/01/09 09:28:14;;;;;;;35.15;10.18;;;5.80;99.90;;;;;;5093649;28;20024;-80
2022/01/09 09:30:40;;;;;;;26.98;6.43;;;5.70;99.90;;;;;;5094155;28;20028;-80
2022/01/09 09:33:06;;;;;;;24.70;5.32;;;5.70;99.90;;;;;;5093415;28;20435;-80
2022/01/09 09:35:32;;;;;;;23.02;4.95;;;5.70;99.90;;;;;;5094633;28;20028;-81
2022/01/09 09:37:58;;;;;;;20.25;4.85;;;5.60;99.90;;;;;;5094741;28;20444;-81
2022/01/09 09:40:26;;;;;;;16.20;3.65;;;5.60;99.90;;;;;;5094725;28;20095;-81
2022/01/09 09:42:53;;;;;;;28.23;6.40;;;5.60;99.90;;;;;;5094576;28;20055;-81
2022/01/09 09:45:19;;;;;;;29.90;6.38;;;5.50;99.90;;;;;;5093010;28;20023;-81
2022/01/09 09:47:45;;;;;;;19.75;3.85;;;5.50;99.90;;;;;;5094528;28;20028;-81
2022/01/09 09:50:13;;;;;;;18.45;4.28;;;5.60;99.90;;;;;;5094698;28;20039;-81
2022/01/09 09:52:41;;;;;;;15.65;3.00;;;5.70;99.90;;;;;;5094484;28;20032;-80
2022/01/09 09:55:07;;;;;;;12.32;3.50;;;5.90;99.90;;;;;;5094389;28;20111;-82
2022/01/09 09:57:33;;;;;;;20.33;4.68;;;5.90;99.90;;;;;;5094077;28;20028;-81
2022/01/09 10:00:20;;;;;;;16.33;4.55;;;5.90;99.90;;;;;;5094375;28;20043;-81
2022/01/09 10:03:00;;;;;;;20.92;4.88;;;6.00;99.90;;;;;;5094278;28;20100;-81
2022/01/09 10:05:44;;;;;;;23.17;4.70;;;6.30;99.90;;;;;;5092883;28;20028;-79
2022/01/09 10:08:15;;;;;;;22.80;5.60;;;6.50;99.90;;;;;;5094041;28;20548;-81
2022/01/09 10:10:42;;;;;;;26.17;6.55;;;6.70;99.90;;;;;;5093892;28;20080;-81
2022/01/09 10:13:16;;;;;;;27.58;5.38;;;6.50;99.90;;;;;;5093633;28;20021;-80
2022/01/09 10:15:55;;;;;;;29.10;5.32;;;6.60;99.90;;;;;;5092752;28;20032;-81
2022/01/09 10:18:43;;;;;;;23.80;5.70;;;6.90;99.90;;;;;;5093867;28;20158;-81
2022/01/09 10:21:14;;;;;;;18.00;4.00;;;7.40;99.90;;;;;;5093943;28;20040;-81
2022/01/09 10:24:08;;;;;;;19.15;4.15;;;7.40;99.90;;;;;;5093789;28;20032;-81
2022/01/09 10:26:36;;;;;;;28.10;5.70;;;7.20;99.90;;;;;;5093525;28;20066;-81
2022/01/09 10:29:04;;;;;;;27.23;5.22;;;6.90;99.90;;;;;;5093805;28;20469;-81
2022/01/09 10:31:30;;;;;;;29.70;4.78;;;7.00;99.90;;;;;;5092429;28;20042;-81
2022/01/09 10:34:04;;;;;;;19.70;4.75;;;7.30;99.90;;;;;;5093725;28;20055;-81
2022/01/09 10:36:41;;;;;;;19.95;4.93;;;7.60;99.90;;;;;;5093754;28;20115;-82
2022/01/09 10:39:16;;;;;;;23.38;4.78;;;7.70;99.90;;;;;;5092413;28;20452;-81
2022/01/09 10:41:50;;;;;;;17.17;4.22;;;7.90;99.90;;;;;;5092650;28;20062;-81
2022/01/09 10:44:22;;;;;;;19.65;4.40;;;8.00;99.90;;;;;;5093243;28;20028;-81
2022/01/09 10:46:55;;;;;;;24.35;4.38;;;7.70;99.90;;;;;;5093839;28;20028;-80
2022/01/09 10:49:21;;;;;;;29.38;6.13;;;7.80;99.90;;;;;;5092221;28;20046;-81
2022/01/09 10:51:48;;;;;;;23.63;6.85;;;8.10;99.90;;;;;;5093347;28;20106;-80
2022/01/09 10:54:30;;;;;;;26.10;4.88;;;8.30;99.90;;;;;;5093253;28;20483;-80
2022/01/09 10:57:30;;;;;;;17.02;5.32;;;8.30;99.90;;;;;;5093425;28;20028;-81
2022/01/09 11:00:07;;;;;;;16.45;4.97;;;8.30;99.90;;;;;;5049605;28;20077;-81
2022/01/09 11:02:32;;;;;;;24.05;5.63;;;8.20;99.90;;;;;;5093247;28;20042;-81
2022/01/09 11:04:58;;;;;;;25.77;5.07;;;8.10;99.90;;;;;;5092809;28;20384;-82
2022/01/09 11:07:24;;;;;;;23.38;4.22;;;8.30;99.90;;;;;;5093320;28;20032;-82
2022/01/09 11:09:51;;;;;;;19.92;4.32;;;8.20;99.90;;;;;;5093086;28;20036;-82
2022/01/09 11:12:20;;;;;;;22.38;4.05;;;8.50;99.90;;;;;;5093049;28;20016;-81
2022/01/09 11:14:49;;;;;;;21.45;4.32;;;8.50;99.90;;;;;;5092986;28;20032;-82
2022/01/09 11:17:17;;;;;;;24.90;5.60;;;8.50;99.90;;;;;;5093328;28;20043;-82
2022/01/09 11:19:43;;;;;;;28.20;5.82;;;8.40;99.90;;;;;;5092597;28;20043;-82
2022/01/09 11:22:12;;;;;;;19.05;3.95;;;8.60;99.90;;;;;;5093810;28;20040;-81
2022/01/09 11:25:05;;;;;;;21.40;4.32;;;8.90;99.90;;;;;;5092600;28;20121;-83
2022/01/09 11:27:50;;;;;;;28.58;5.00;;;8.70;99.90;;;;;;5092971;28;20047;-83
2022/01/09 11:30:39;;;;;;;23.85;4.80;;;8.70;99.90;;;;;;5092616;28;20082;-84
2022/01/09 11:33:11;;;;;;;20.70;4.68;;;9.20;99.90;;;;;;5093015;28;20031;-82
2022/01/09 11:36:04;;;;;;;20.90;4.57;;;8.80;99.90;;;;;;5091470;28;20126;-81
2022/01/09 11:38:45;;;;;;;24.98;4.22;;;8.60;99.90;;;;;;5092942;28;20483;-83
2022/01/09 11:41:15;;;;;;;26.10;4.93;;;8.50;99.90;;;;;;5074613;28;20063;-82
2022/01/09 11:43:54;;;;;;;18.25;4.28;;;8.40;99.90;;;;;;5092694;28;20480;-82
2022/01/09 11:46:20;;;;;;;19.92;4.28;;;8.70;99.90;;;;;;5093303;28;20024;-82
2022/01/09 11:48:52;;;;;;;23.90;4.85;;;8.90;99.90;;;;;;5092708;28;20056;-82
2022/01/09 11:51:25;;;;;;;23.00;5.30;;;8.90;99.90;;;;;;5091810;28;20032;-82
2022/01/09 11:54:15;;;;;;;23.75;5.07;;;8.40;99.90;;;;;;5094642;28;20723;-83
2022/01/09 11:57:05;;;;;;;23.92;5.07;;;8.20;99.90;;;;;;5095568;28;20032;-82
2022/01/09 11:59:37;;;;;;;22.55;4.53;;;7.90;99.90;;;;;;5095202;28;20369;-82
2022/01/09 12:02:05;;;;;;;28.20;4.25;;;7.90;99.90;;;;;;5095435;28;20499;-82
2022/01/09 12:04:31;;;;;;;22.63;4.05;;;7.90;99.90;;;;;;5095258;28;20499;-82
2022/01/09 12:07:08;;;;;;;18.05;4.78;;;7.60;99.90;;;;;;5096593;28;20028;-82
2022/01/09 12:09:45;;;;;;;19.88;5.00;;;7.80;99.90;;;;;;5095938;28;20040;-82
2022/01/09 12:12:12;;;;;;;19.85;4.30;;;8.60;99.90;;;;;;5096811;28;20028;-83
2022/01/09 12:15:03;;;;;;;24.88;4.32;;;8.20;99.90;;;;;;5095271;28;20035;-81
2022/01/09 12:17:38;;;;;;;17.50;4.82;;;8.00;99.90;;;;;;5096612;28;20111;-82
2022/01/09 12:20:13;;;;;;;19.30;4.45;;;7.70;99.90;;;;;;5094944;28;20044;-82
2022/01/09 12:22:39;;;;;;;28.58;4.72;;;7.40;99.90;;;;;;5094858;28;20040;-83
2022/01/09 12:25:28;;;;;;;28.52;4.25;;;7.40;99.90;;;;;;5096048;28;20027;-83
2022/01/09 12:28:11;;;;;;;17.60;4.55;;;7.20;99.90;;;;;;5075969;28;20035;-81
2022/01/09 12:30:44;;;;;;;29.52;4.65;;;7.10;99.90;;;;;;5076028;28;20162;-82
2022/01/09 12:33:40;;;;;;;17.95;4.13;;;7.10;99.90;;;;;;5075914;28;20071;-82
2022/01/09 12:36:14;;;;;;;24.85;4.75;;;7.40;99.90;;;;;;5075814;28;20033;-83
2022/01/09 12:38:41;;;;;;;23.13;4.50;;;7.90;99.90;;;;;;5075629;28;20362;-82
2022/01/09 12:41:14;;;;;;;28.77;4.38;;;7.80;99.90;;;;;;5075861;28;20063;-83
2022/01/09 12:43:41;;;;;;;24.05;4.07;;;7.40;99.90;;;;;;5075976;28;20025;-82
2022/01/09 12:46:12;;;;;;;21.58;4.30;;;7.70;99.90;;;;;;5075839;28;20021;-82
2022/01/09 12:48:40;;;;;;;25.67;4.55;;;7.70;99.90;;;;;;5074722;28;20115;-83
2022/01/09 12:51:07;;;;;;;46.17;5.38;;;7.60;99.90;;;;;;5075551;28;20047;-83
2022/01/09 12:53:48;;;;;;;17.15;4.20;;;7.40;99.90;;;;;;5074998;28;20028;-82